Time;durP1;ratioP1;P1;durP2;ratioP2;P2;SDS_P1;SDS_P2;PMS_P1;PMS_P2;Temp;Humidity;BMP_temperature;BMP_pressure;BME280_temperature;BME280_humidity;BME280_pressure;Samples;Min_cycle;Max_cycle;Signal;HPM_P1;HPM_P2
2023/05/23 00:01:39;;;;;;;4.87;3.30;;;18.60;48.90;;;;;;5201791;28;20466;-45
2023/05/23 00:04:15;;;;;;;6.00;3.97;;;18.50;49.00;;;;;;5203108;28;20477;-47
2023/05/23 00:06:49;;;;;;;3.53;3.30;;;18.50;49.10;;;;;;5203505;28;20273;-47
2023/05/23 00:09:19;;;;;;;4.90;3.83;;;18.50;49.10;;;;;;5201975;28;21018;-47
2023/05/23 00:11:50;;;;;;;4.33;3.27;;;18.50;49.10;;;;;;5199470;28;20485;-47
2023/05/23 00:14:22;;;;;;;8.67;3.73;;;18.50;49.10;;;;;;5200753;28;20241;-47
2023/05/23 00:16:53;;;;;;;4.17;3.57;;;18.50;49.10;;;;;;5204674;28;20279;-48
2023/05/23 00:19:24;;;;;;;6.13;3.43;;;18.50;49.30;;;;;;5202292;28;20442;-47
2023/05/23 00:21:55;;;;;;;7.07;3.77;;;18.40;49.20;;;;;;5212998;28;20491;-47
2023/05/23 00:24:26;;;;;;;4.20;3.53;;;18.40;49.30;;;;;;5203098;28;20229;-46
2023/05/23 00:26:57;;;;;;;3.47;3.20;;;18.40;49.40;;;;;;5202788;28;20537;-46
2023/05/23 00:29:28;;;;;;;4.50;3.73;;;18.40;49.50;;;;;;5221803;28;20883;-48
2023/05/23 00:31:58;;;;;;;5.27;3.57;;;18.30;49.40;;;;;;5202480;28;20434;-47
2023/05/23 00:34:29;;;;;;;5.60;4.17;;;18.30;49.50;;;;;;5204997;28;20627;-47
2023/05/23 00:37:01;;;;;;;4.17;3.47;;;18.30;49.60;;;;;;5207750;28;20291;-46
2023/05/23 00:39:31;;;;;;;3.30;3.10;;;18.30;49.70;;;;;;5205456;28;20647;-47
2023/05/23 00:42:04;;;;;;;3.67;3.37;;;18.20;49.80;;;;;;5201957;28;20438;-46
2023/05/23 00:44:35;;;;;;;7.83;3.40;;;18.10;49.80;;;;;;5204076;28;20679;-47
2023/05/23 00:47:06;;;;;;;3.37;3.07;;;18.10;49.80;;;;;;5204753;28;20462;-46
2023/05/23 00:49:37;;;;;;;3.40;3.17;;;18.10;50.00;;;;;;5199624;28;20238;-46
2023/05/23 00:52:08;;;;;;;4.13;3.40;;;18.10;50.10;;;;;;5204036;28;20482;-47
2023/05/23 00:54:39;;;;;;;2.93;2.80;;;18.00;50.20;;;;;;5199796;28;20183;-47
2023/05/23 00:57:10;;;;;;;3.13;2.93;;;18.00;50.30;;;;;;5186575;28;20842;-47
2023/05/23 00:59:42;;;;;;;8.60;3.50;;;17.90;50.40;;;;;;5205769;28;20621;-47
2023/05/23 01:02:12;;;;;;;8.53;3.57;;;17.90;50.50;;;;;;5202750;28;20214;-46
2023/05/23 01:04:43;;;;;;;3.80;3.47;;;17.90;50.80;;;;;;5201326;28;20533;-44
2023/05/23 01:07:14;;;;;;;5.30;3.10;;;17.80;51.00;;;;;;5204212;28;20759;-48
2023/05/23 01:09:45;;;;;;;8.10;2.97;;;17.70;51.20;;;;;;5202878;28;20207;-47
2023/05/23 01:12:46;;;;;;;6.00;3.63;;;17.60;51.30;;;;;;5204185;28;20656;-46
2023/05/23 01:15:20;;;;;;;4.30;3.90;;;17.60;51.40;;;;;;5199830;28;20428;-47
2023/05/23 01:18:23;;;;;;;3.60;3.33;;;17.60;51.50;;;;;;5201683;28;20908;-47
2023/05/23 01:21:05;;;;;;;5.10;3.13;;;17.60;51.60;;;;;;5197276;28;20449;-46
2023/05/23 01:23:54;;;;;;;7.90;3.33;;;17.60;51.40;;;;;;5199910;28;21019;-47
2023/05/23 01:26:47;;;;;;;3.43;3.23;;;17.60;51.50;;;;;;5203112;28;20458;-46
2023/05/23 01:29:24;;;;;;;5.30;3.93;;;17.70;51.50;;;;;;5210065;28;20466;-47
2023/05/23 01:31:57;;;;;;;5.17;3.77;;;17.70;51.60;;;;;;5200318;28;20434;-46
2023/05/23 01:34:30;;;;;;;6.67;3.50;;;17.70;51.60;;;;;;5215587;28;20449;-45
2023/05/23 01:37:00;;;;;;;3.80;3.50;;;17.70;51.60;;;;;;5186381;28;20548;-46
2023/05/23 01:39:31;;;;;;;4.67;3.67;;;17.70;51.70;;;;;;5201300;28;20876;-46
2023/05/23 01:42:02;;;;;;;6.40;4.07;;;17.70;51.70;;;;;;5200665;28;20194;-46
2023/05/23 01:44:34;;;;;;;3.37;3.13;;;17.70;51.80;;;;;;5189472;28;20191;-46
2023/05/23 01:47:07;;;;;;;3.80;3.43;;;17.70;51.90;;;;;;5186869;28;20533;-47
2023/05/23 01:49:39;;;;;;;7.70;3.20;;;17.60;51.90;;;;;;5203544;28;20462;-47
2023/05/23 01:52:10;;;;;;;3.80;3.23;;;17.60;52.00;;;;;;5204114;28;20508;-46
2023/05/23 01:54:42;;;;;;;4.53;3.83;;;17.60;52.70;;;;;;5202585;28;20960;-46
2023/05/23 01:57:13;;;;;;;4.27;3.67;;;17.60;52.20;;;;;;5202090;28;20474;-46
2023/05/23 01:59:44;;;;;;;4.20;3.70;;;17.50;52.30;;;;;;5202706;28;20431;-46
2023/05/23 02:02:15;;;;;;;6.10;3.60;;;17.50;52.50;;;;;;5186138;28;20446;-46
2023/05/23 02:04:45;;;;;;;3.43;2.97;;;17.50;52.50;;;;;;5201739;28;20529;-46
2023/05/23 02:07:16;;;;;;;4.13;3.73;;;17.50;52.50;;;;;;5204086;28;20214;-46
2023/05/23 02:09:47;;;;;;;5.30;3.80;;;17.50;52.60;;;;;;5201116;28;20572;-46
2023/05/23 02:12:18;;;;;;;6.30;4.07;;;17.50;52.60;;;;;;5205159;28;20570;-47
2023/05/23 02:14:51;;;;;;;3.77;3.50;;;17.50;52.60;;;;;;5199701;28;20214;-46
2023/05/23 02:17:23;;;;;;;4.40;4.10;;;17.50;52.70;;;;;;5201179;28;20684;-46
2023/05/23 02:19:53;;;;;;;9.60;3.70;;;17.50;52.80;;;;;;5202532;28;20825;-47
2023/05/23 02:22:27;;;;;;;3.30;3.20;;;17.40;52.80;;;;;;5202661;28;20468;-46
2023/05/23 02:24:57;;;;;;;8.73;4.47;;;17.40;53.00;;;;;;5203270;28;20190;-47
2023/05/23 02:27:28;;;;;;;5.10;3.20;;;17.40;53.10;;;;;;5201408;28;20466;-46
2023/05/23 02:29:58;;;;;;;3.77;3.33;;;17.40;53.10;;;;;;5202829;28;20204;-46
2023/05/23 02:32:29;;;;;;;4.27;3.97;;;17.30;53.20;;;;;;5203592;28;20187;-46
2023/05/23 02:35:00;;;;;;;8.00;4.67;;;17.30;53.40;;;;;;5196215;28;20190;-48
2023/05/23 02:37:31;;;;;;;4.17;3.70;;;17.30;53.40;;;;;;5205067;28;20199;-45
2023/05/23 02:40:03;;;;;;;5.10;3.90;;;17.30;53.50;;;;;;5202453;28;20449;-45
2023/05/23 02:42:33;;;;;;;4.20;3.90;;;17.30;53.60;;;;;;5199162;28;20179;-46
2023/05/23 02:45:04;;;;;;;7.73;3.80;;;17.30;53.60;;;;;;5206521;28;20422;-46
2023/05/23 02:47:35;;;;;;;9.37;5.13;;;17.30;53.70;;;;;;5203338;28;20360;-45
2023/05/23 02:50:06;;;;;;;4.27;3.93;;;17.20;53.70;;;;;;5200858;28;20557;-47
2023/05/23 02:52:37;;;;;;;4.10;3.80;;;17.20;53.70;;;;;;5201170;28;20326;-45
2023/05/23 02:55:08;;;;;;;4.27;3.83;;;17.20;53.90;;;;;;5203137;28;20924;-46
2023/05/23 02:57:39;;;;;;;12.93;4.63;;;17.20;53.90;;;;;;5203715;28;20211;-45
2023/05/23 03:00:11;;;;;;;4.53;4.10;;;17.20;53.90;;;;;;5203370;28;20807;-46
2023/05/23 03:02:41;;;;;;;6.93;4.13;;;17.20;54.10;;;;;;5200324;28;20183;-46
2023/05/23 03:05:12;;;;;;;14.33;5.17;;;17.20;54.30;;;;;;5201527;28;20949;-46
2023/05/23 03:07:42;;;;;;;8.20;4.90;;;17.20;54.30;;;;;;5202348;28;20676;-47
2023/05/23 03:10:13;;;;;;;4.90;4.50;;;17.20;54.40;;;;;;5201353;28;20199;-46
2023/05/23 03:12:45;;;;;;;6.53;4.17;;;17.20;54.40;;;;;;5203899;28;20199;-45
2023/05/23 03:15:15;;;;;;;4.33;3.93;;;17.10;54.30;;;;;;5207044;28;20679;-46
2023/05/23 03:17:46;;;;;;;4.03;3.83;;;17.10;54.50;;;;;;5203367;28;20557;-46
2023/05/23 03:20:16;;;;;;;4.50;4.10;;;17.10;54.50;;;;;;5203305;28;20194;-46
2023/05/23 03:22:47;;;;;;;5.77;4.30;;;17.10;54.50;;;;;;5196212;28;20195;-46
2023/05/23 03:25:18;;;;;;;6.07;4.47;;;17.10;54.60;;;;;;5199958;28;20195;-46
2023/05/23 03:27:48;;;;;;;7.93;4.27;;;17.10;55.00;;;;;;5199907;28;20230;-47
2023/05/23 03:30:19;;;;;;;4.03;3.70;;;17.00;55.00;;;;;;5199658;28;20211;-46
2023/05/23 03:32:50;;;;;;;3.97;3.67;;;17.00;55.00;;;;;;5201839;28;20183;-47
2023/05/23 03:35:21;;;;;;;6.13;4.17;;;17.00;55.10;;;;;;5201382;28;20505;-46
2023/05/23 03:37:51;;;;;;;6.73;4.50;;;17.00;55.20;;;;;;5199701;28;20200;-46
2023/05/23 03:40:22;;;;;;;6.00;4.60;;;16.90;55.30;;;;;;5194882;28;20726;-46
2023/05/23 03:43:04;;;;;;;6.03;4.03;;;16.90;55.40;;;;;;5203687;28;20286;-46
2023/05/23 03:45:35;;;;;;;4.63;4.20;;;16.90;55.40;;;;;;5195848;28;20269;-45
2023/05/23 03:48:05;;;;;;;4.00;3.70;;;16.90;55.50;;;;;;5208535;28;20472;-46
2023/05/23 03:50:36;;;;;;;4.37;3.97;;;16.90;55.50;;;;;;5204529;28;20599;-46
2023/05/23 03:53:07;;;;;;;9.30;4.73;;;16.90;55.40;;;;;;5205389;28;20333;-47
2023/05/23 03:55:39;;;;;;;5.70;4.70;;;16.90;55.50;;;;;;5199094;28;20266;-46
2023/05/23 03:58:10;;;;;;;5.20;4.70;;;16.90;55.60;;;;;;5203784;28;20679;-46
2023/05/23 04:00:41;;;;;;;12.07;4.90;;;16.90;55.80;;;;;;5206488;28;20501;-46
2023/05/23 04:03:16;;;;;;;7.20;3.83;;;16.90;55.80;;;;;;5205189;28;20422;-47
2023/05/23 04:05:46;;;;;;;4.37;3.97;;;16.90;55.80;;;;;;5205060;28;20187;-46
2023/05/23 04:08:20;;;;;;;3.80;3.43;;;16.90;55.80;;;;;;5204454;28;20765;-46
2023/05/23 04:10:51;;;;;;;5.20;4.47;;;16.90;55.90;;;;;;5205066;28;20281;-46
2023/05/23 04:13:23;;;;;;;6.83;4.27;;;16.90;55.90;;;;;;5205257;28;20489;-48
2023/05/23 04:16:00;;;;;;;10.07;4.50;;;16.90;56.00;;;;;;5204494;28;20223;-46
2023/05/23 04:18:37;;;;;;;5.37;4.67;;;16.90;56.10;;;;;;5203521;28;20548;-46
2023/05/23 04:21:08;;;;;;;6.73;4.77;;;16.90;56.40;;;;;;5208079;28;20433;-46
2023/05/23 04:23:40;;;;;;;4.90;4.10;;;16.90;56.50;;;;;;5203593;28;20493;-46
2023/05/23 04:26:11;;;;;;;10.97;5.30;;;16.90;56.60;;;;;;5200644;28;20931;-46
2023/05/23 04:28:45;;;;;;;7.33;4.70;;;16.90;57.10;;;;;;5201729;28;20192;-46
2023/05/23 04:31:15;;;;;;;5.73;4.60;;;16.90;57.90;;;;;;5202875;28;20477;-46
2023/05/23 04:33:46;;;;;;;7.50;4.40;;;16.90;57.40;;;;;;5199758;28;20811;-46
2023/05/23 04:36:17;;;;;;;5.07;4.63;;;16.90;57.60;;;;;;5204906;28;20281;-46
2023/05/23 04:38:48;;;;;;;6.03;5.37;;;16.90;57.70;;;;;;5198488;28;20237;-47
2023/05/23 04:41:22;;;;;;;7.93;4.80;;;16.90;57.90;;;;;;5203682;28;20548;-45
2023/05/23 04:43:53;;;;;;;6.57;4.43;;;17.00;58.00;;;;;;5202526;28;20179;-46
2023/05/23 04:46:25;;;;;;;5.60;5.03;;;17.00;57.50;;;;;;5198860;28;20472;-47
2023/05/23 04:48:57;;;;;;;12.80;4.80;;;16.90;57.40;;;;;;5199649;28;20992;-47
2023/05/23 04:51:28;;;;;;;8.00;5.23;;;16.90;57.70;;;;;;5199223;28;20441;-46
2023/05/23 04:53:58;;;;;;;15.20;4.70;;;16.90;58.00;;;;;;5202916;28;20430;-46
2023/05/23 04:56:29;;;;;;;8.93;5.10;;;16.90;57.90;;;;;;5202949;28;20199;-46
2023/05/23 04:59:00;;;;;;;7.73;4.50;;;16.90;58.00;;;;;;5202695;28;20278;-47
2023/05/23 05:01:30;;;;;;;5.50;4.47;;;16.90;57.90;;;;;;5202202;28;20184;-47
2023/05/23 05:04:01;;;;;;;11.10;5.43;;;16.90;58.20;;;;;;5201946;28;20612;-48
2023/05/23 05:06:32;;;;;;;12.03;4.57;;;16.90;58.10;;;;;;5201372;28;20214;-46
2023/05/23 05:09:02;;;;;;;11.73;4.57;;;16.90;58.20;;;;;;5202877;28;20175;-46
2023/05/23 05:11:33;;;;;;;8.23;4.50;;;16.80;58.20;;;;;;5199237;28;20617;-46
2023/05/23 05:14:04;;;;;;;5.30;4.80;;;16.80;58.50;;;;;;5202455;28;20237;-46
2023/05/23 05:16:35;;;;;;;8.40;4.77;;;16.70;58.60;;;;;;5200655;28;20254;-46
2023/05/23 05:19:05;;;;;;;9.00;4.63;;;16.70;58.70;;;;;;5201158;28;20550;-46
2023/05/23 05:21:36;;;;;;;10.60;5.03;;;16.80;59.10;;;;;;5202391;28;20439;-46
2023/05/23 05:24:08;;;;;;;8.53;4.90;;;16.80;59.10;;;;;;5202483;28;20194;-45
2023/05/23 05:26:39;;;;;;;7.03;4.47;;;16.90;59.00;;;;;;5201947;28;20314;-46
2023/05/23 05:29:10;;;;;;;14.23;4.60;;;16.90;58.70;;;;;;5199057;28;20443;-47
2023/05/23 05:31:42;;;;;;;8.20;4.70;;;16.90;58.60;;;;;;5199919;28;20198;-46
2023/05/23 05:34:12;;;;;;;5.13;3.93;;;16.90;58.60;;;;;;5199976;28;20646;-47
2023/05/23 05:36:47;;;;;;;7.10;4.77;;;17.00;58.50;;;;;;5202083;28;20521;-47
2023/05/23 05:39:17;;;;;;;4.20;3.90;;;17.10;58.60;;;;;;5202531;28;20184;-47
2023/05/23 05:41:48;;;;;;;6.77;5.10;;;17.10;58.60;;;;;;5202210;28;20457;-45
2023/05/23 05:44:18;;;;;;;8.37;4.60;;;17.20;58.60;;;;;;5181555;28;20707;-46
2023/05/23 05:46:50;;;;;;;5.73;4.47;;;17.30;58.50;;;;;;5201329;28;20215;-47
2023/05/23 05:49:21;;;;;;;6.23;4.33;;;17.30;58.20;;;;;;5201253;28;20212;-46
2023/05/23 05:51:52;;;;;;;5.83;4.67;;;17.40;58.90;;;;;;5202949;28;20442;-46
2023/05/23 05:54:22;;;;;;;6.47;5.57;;;17.40;58.40;;;;;;5202491;28;20200;-47
2023/05/23 05:56:54;;;;;;;4.60;4.20;;;17.50;58.60;;;;;;5201459;28;20266;-47
2023/05/23 05:59:24;;;;;;;5.87;4.83;;;17.60;58.70;;;;;;5200800;28;20216;-47
2023/05/23 06:01:55;;;;;;;7.17;4.53;;;17.60;59.00;;;;;;5201250;28;20462;-46
2023/05/23 06:04:26;;;;;;;11.37;5.03;;;17.60;59.10;;;;;;5200543;28;20187;-47
2023/05/23 06:06:56;;;;;;;6.13;4.60;;;17.50;59.80;;;;;;5198205;28;20230;-47
2023/05/23 06:09:27;;;;;;;6.40;4.57;;;17.60;61.50;;;;;;5197442;28;20763;-48
2023/05/23 06:11:59;;;;;;;7.83;5.30;;;17.60;61.60;;;;;;5198874;28;20196;-47
2023/05/23 06:14:29;;;;;;;6.40;5.80;;;17.70;61.30;;;;;;5202609;28;20582;-46
2023/05/23 06:17:00;;;;;;;16.83;6.20;;;17.70;61.50;;;;;;5200845;28;20471;-46
2023/05/23 06:19:30;;;;;;;7.27;5.30;;;17.60;61.30;;;;;;5202681;28;20715;-48
2023/05/23 06:22:01;;;;;;;8.03;4.77;;;17.70;61.40;;;;;;5199520;28;20680;-47
2023/05/23 06:24:32;;;;;;;7.70;5.20;;;17.70;61.70;;;;;;5202928;28;20192;-49
2023/05/23 06:27:03;;;;;;;6.40;5.03;;;17.60;61.50;;;;;;5200863;28;20218;-46
2023/05/23 06:29:35;;;;;;;9.20;4.90;;;17.40;61.10;;;;;;5198196;28;20563;-46
2023/05/23 06:32:06;;;;;;;9.30;5.40;;;17.60;61.30;;;;;;5198713;28;20179;-48
2023/05/23 06:34:36;;;;;;;4.03;3.80;;;17.70;61.60;;;;;;5201121;28;20772;-49
2023/05/23 06:37:07;;;;;;;14.80;5.40;;;17.70;61.40;;;;;;5200839;28;20294;-47
2023/05/23 06:39:38;;;;;;;5.97;4.70;;;17.80;61.10;;;;;;5201241;28;20197;-49
2023/05/23 06:42:08;;;;;;;9.27;4.90;;;17.80;61.30;;;;;;5182712;28;20187;-47
2023/05/23 06:44:39;;;;;;;16.70;5.47;;;17.90;61.00;;;;;;5197721;28;20257;-46
2023/05/23 06:47:10;;;;;;;16.90;5.27;;;17.90;61.00;;;;;;5201140;28;20569;-46
2023/05/23 06:49:42;;;;;;;8.27;5.00;;;18.00;60.60;;;;;;5198939;28;20269;-47
2023/05/23 06:52:12;;;;;;;9.77;6.00;;;18.00;60.40;;;;;;5198450;28;20183;-47
2023/05/23 06:54:43;;;;;;;9.70;5.90;;;18.30;60.40;;;;;;5200957;28;20426;-47
2023/05/23 06:57:13;;;;;;;8.07;5.27;;;18.60;59.40;;;;;;5200973;28;20584;-49
2023/05/23 06:59:44;;;;;;;8.50;5.27;;;18.90;58.30;;;;;;5198636;28;20204;-48
2023/05/23 07:02:15;;;;;;;7.30;5.13;;;19.20;57.60;;;;;;5191872;28;20207;-47
2023/05/23 07:04:45;;;;;;;6.77;5.40;;;19.50;56.90;;;;;;5195726;28;20265;-48
2023/05/23 07:07:16;;;;;;;14.03;5.37;;;19.90;56.00;;;;;;5199520;28;20200;-48
2023/05/23 07:09:47;;;;;;;5.87;5.37;;;20.20;55.00;;;;;;5198786;28;20720;-49
2023/05/23 07:12:17;;;;;;;9.73;4.20;;;20.60;54.90;;;;;;5199038;28;20525;-47
2023/05/23 07:14:48;;;;;;;14.90;5.57;;;21.20;53.80;;;;;;5200477;28;20187;-48
2023/05/23 07:17:18;;;;;;;9.47;4.97;;;21.80;52.90;;;;;;5201807;28;20255;-48
2023/05/23 07:19:49;;;;;;;12.00;5.30;;;22.50;51.60;;;;;;5182901;28;20183;-49
2023/05/23 07:22:20;;;;;;;10.93;6.90;;;22.70;51.10;;;;;;5197382;28;20206;-48
2023/05/23 07:24:51;;;;;;;9.63;5.47;;;22.70;51.00;;;;;;5201442;28;20629;-49
2023/05/23 07:27:21;;;;;;;7.23;5.10;;;22.60;50.90;;;;;;5198243;28;20220;-48
2023/05/23 07:29:52;;;;;;;7.23;5.17;;;23.10;50.20;;;;;;5198366;28;20578;-49
2023/05/23 07:32:23;;;;;;;8.90;5.50;;;23.70;48.70;;;;;;5199005;28;20188;-49
2023/05/23 07:34:53;;;;;;;5.90;5.40;;;23.50;48.80;;;;;;5200204;28;20523;-50
2023/05/23 07:37:26;;;;;;;6.63;4.90;;;23.60;49.00;;;;;;5200943;28;20206;-50
2023/05/23 07:39:56;;;;;;;9.70;5.07;;;23.80;48.40;;;;;;5198233;28;20190;-49
2023/05/23 07:42:27;;;;;;;4.87;3.90;;;23.60;47.60;;;;;;5198801;28;20430;-47
2023/05/23 07:44:57;;;;;;;4.50;4.10;;;23.60;48.50;;;;;;5197386;28;20570;-48
2023/05/23 07:47:28;;;;;;;7.83;3.63;;;23.70;48.00;;;;;;5202774;28;20302;-49
2023/05/23 07:50:01;;;;;;;10.90;4.97;;;23.80;47.70;;;;;;5201385;28;20261;-48
2023/05/23 07:52:31;;;;;;;7.90;5.53;;;23.80;47.10;;;;;;5201119;28;20206;-47
2023/05/23 07:55:02;;;;;;;6.77;4.33;;;23.60;47.70;;;;;;5184194;28;20461;-48
2023/05/23 07:57:33;;;;;;;8.70;5.17;;;23.60;47.80;;;;;;5199836;28;20695;-48
2023/05/23 08:00:06;;;;;;;8.90;4.50;;;23.30;47.60;;;;;;5200267;28;20187;-51
2023/05/23 08:02:36;;;;;;;12.17;5.03;;;23.40;47.70;;;;;;5200445;28;20245;-49
2023/05/23 08:05:08;;;;;;;11.77;4.20;;;23.20;48.00;;;;;;5201559;28;20530;-48
2023/05/23 08:07:39;;;;;;;3.93;3.63;;;23.30;48.30;;;;;;5200341;28;20258;-49
2023/05/23 08:10:09;;;;;;;6.90;4.70;;;24.30;47.60;;;;;;5213282;28;20466;-48
2023/05/23 08:12:40;;;;;;;5.83;4.50;;;24.80;46.20;;;;;;5199416;28;20570;-47
2023/05/23 08:15:11;;;;;;;5.30;3.57;;;24.90;46.30;;;;;;5203768;28;20179;-49
2023/05/23 08:17:41;;;;;;;9.43;4.13;;;25.00;46.10;;;;;;5200844;28;20222;-50
2023/05/23 08:20:12;;;;;;;4.87;4.17;;;25.00;46.00;;;;;;5203301;28;20187;-48
2023/05/23 08:22:42;;;;;;;4.50;4.10;;;24.90;46.20;;;;;;5201675;28;20199;-50
2023/05/23 08:25:13;;;;;;;8.27;5.40;;;24.60;46.10;;;;;;5204909;28;20250;-50
2023/05/23 08:27:44;;;;;;;7.70;5.43;;;25.50;45.40;;;;;;5219769;28;20576;-49
2023/05/23 08:30:15;;;;;;;6.53;3.90;;;25.50;44.90;;;;;;5204861;28;20234;-48
2023/05/23 08:32:45;;;;;;;5.33;4.90;;;26.00;44.80;;;;;;5222507;28;20187;-48
2023/05/23 08:35:16;;;;;;;8.67;5.10;;;26.30;43.50;;;;;;5209109;28;20184;-48
2023/05/23 08:37:48;;;;;;;7.93;5.00;;;25.90;44.50;;;;;;5211265;28;20307;-48
2023/05/23 08:40:20;;;;;;;4.87;4.07;;;26.10;44.60;;;;;;5209269;28;20291;-48
2023/05/23 08:42:51;;;;;;;6.30;4.70;;;25.50;45.20;;;;;;5209058;28;20427;-49
2023/05/23 08:45:22;;;;;;;12.70;4.77;;;24.80;47.10;;;;;;5208809;28;20786;-50
2023/05/23 08:47:54;;;;;;;5.43;4.50;;;24.70;47.30;;;;;;5202863;28;20671;-49
2023/05/23 08:50:29;;;;;;;6.90;4.80;;;24.70;47.70;;;;;;5206274;28;20748;-50
2023/05/23 08:53:00;;;;;;;6.60;5.57;;;25.00;47.10;;;;;;5203281;28;20861;-49
2023/05/23 08:55:30;;;;;;;20.10;5.40;;;24.90;47.70;;;;;;5206393;28;20457;-48
2023/05/23 08:58:02;;;;;;;8.60;4.63;;;24.90;48.20;;;;;;5207804;28;20442;-48
2023/05/23 09:00:33;;;;;;;13.27;4.37;;;25.30;47.90;;;;;;5204678;28;20221;-49
2023/05/23 09:03:04;;;;;;;11.27;4.77;;;25.50;47.70;;;;;;5200406;28;20441;-49
2023/05/23 09:05:35;;;;;;;7.40;4.40;;;25.80;47.80;;;;;;5190516;28;20998;-48
2023/05/23 09:08:06;;;;;;;8.53;4.40;;;25.80;47.60;;;;;;5190826;28;20640;-49
2023/05/23 09:10:36;;;;;;;6.83;4.50;;;26.00;47.80;;;;;;5190857;28;20221;-48
2023/05/23 09:13:08;;;;;;;5.90;5.30;;;25.50;48.60;;;;;;5198283;28;20283;-48
2023/05/23 09:15:58;;;;;;;4.60;4.17;;;24.50;49.50;;;;;;5198086;28;20181;-48
2023/05/23 09:18:34;;;;;;;4.87;4.47;;;24.20;51.10;;;;;;5206936;28;20434;-48
2023/05/23 09:21:08;;;;;;;5.30;4.57;;;24.70;51.10;;;;;;5200204;28;20526;-48
2023/05/23 09:23:39;;;;;;;4.20;3.90;;;25.00;50.60;;;;;;5202342;28;20545;-48
2023/05/23 09:26:12;;;;;;;4.63;4.30;;;25.50;50.50;;;;;;5206729;28;20810;-48
2023/05/23 09:28:44;;;;;;;6.90;4.63;;;25.90;50.00;;;;;;5200623;28;20537;-49
2023/05/23 09:31:15;;;;;;;4.70;4.17;;;26.00;50.10;;;;;;5199652;28;20986;-48
2023/05/23 09:33:48;;;;;;;5.43;4.10;;;26.00;50.10;;;;;;5199887;28;20438;-48
2023/05/23 09:36:18;;;;;;;12.47;4.37;;;25.90;50.30;;;;;;5202743;28;20279;-48
2023/05/23 09:38:51;;;;;;;8.57;4.53;;;25.20;51.20;;;;;;5203450;28;20434;-49
2023/05/23 09:41:22;;;;;;;12.70;6.07;;;25.40;51.70;;;;;;5203507;28;20600;-49
2023/05/23 09:43:53;;;;;;;11.13;4.63;;;25.40;52.10;;;;;;5203700;28;21009;-49
2023/05/23 09:46:29;;;;;;;4.37;3.97;;;25.00;52.60;;;;;;5196738;28;20585;-49
2023/05/23 09:48:59;;;;;;;11.80;6.60;;;24.70;53.40;;;;;;5202797;28;20430;-49
2023/05/23 09:51:31;;;;;;;9.97;6.00;;;24.60;53.90;;;;;;5194012;28;20458;-48
2023/05/23 09:54:02;;;;;;;5.87;5.40;;;24.40;54.70;;;;;;5197280;28;20262;-49
2023/05/23 09:56:36;;;;;;;6.90;5.13;;;24.20;55.70;;;;;;5200545;28;20541;-48
2023/05/23 09:59:10;;;;;;;9.10;6.77;;;23.90;56.40;;;;;;5198124;28;20198;-49
2023/05/23 10:01:43;;;;;;;11.20;5.40;;;23.90;57.10;;;;;;5196576;28;20935;-50
2023/05/23 10:04:19;;;;;;;9.30;4.70;;;23.80;57.30;;;;;;5197573;28;20529;-50
2023/05/23 10:07:01;;;;;;;5.63;5.00;;;23.90;57.40;;;;;;5201790;28;20866;-48
2023/05/23 10:09:36;;;;;;;10.40;6.10;;;24.20;57.00;;;;;;5199192;28;20462;-47
2023/05/23 10:12:43;;;;;;;6.00;5.50;;;24.40;56.70;;;;;;5198395;28;20918;-48
2023/05/23 10:15:16;;;;;;;14.53;6.63;;;24.60;56.80;;;;;;5199981;28;20434;-48
2023/05/23 10:17:59;;;;;;;4.90;4.23;;;24.50;56.40;;;;;;5192267;28;20474;-50
2023/05/23 10:20:31;;;;;;;7.17;4.83;;;24.60;56.90;;;;;;5202625;28;20472;-51
2023/05/23 10:23:04;;;;;;;5.57;5.07;;;24.30;56.70;;;;;;5204198;28;20434;-49
2023/05/23 10:25:35;;;;;;;5.70;4.67;;;23.90;56.10;;;;;;5206895;28;20441;-49
2023/05/23 10:28:06;;;;;;;7.13;6.47;;;23.60;55.80;;;;;;5199624;28;20438;-48
2023/05/23 10:30:37;;;;;;;8.27;5.33;;;23.60;55.70;;;;;;5199776;28;20871;-47
2023/05/23 10:33:10;;;;;;;6.87;4.60;;;23.60;56.30;;;;;;5200715;28;20264;-48
2023/05/23 10:35:51;;;;;;;5.90;5.30;;;23.60;57.10;;;;;;5197975;28;20900;-47
2023/05/23 10:38:41;;;;;;;9.20;6.10;;;23.30;58.10;;;;;;5201703;28;20426;-50
2023/05/23 10:41:29;;;;;;;5.87;5.37;;;23.40;58.30;;;;;;5202258;28;20430;-48
2023/05/23 10:44:07;;;;;;;5.90;4.83;;;23.30;58.70;;;;;;5200206;28;20720;-48
2023/05/23 10:47:00;;;;;;;7.60;5.73;;;23.50;59.10;;;;;;5198997;28;20498;-48
2023/05/23 10:49:44;;;;;;;7.53;5.93;;;23.30;59.90;;;;;;5201823;28;20469;-49
2023/05/23 10:52:18;;;;;;;12.40;6.20;;;23.30;61.20;;;;;;5208047;28;20480;-49
2023/05/23 10:54:51;;;;;;;11.67;7.87;;;23.20;63.40;;;;;;5205772;28;20839;-47
2023/05/23 10:57:27;;;;;;;14.40;7.80;;;23.00;65.20;;;;;;5200661;28;20542;-48
2023/05/23 10:59:58;;;;;;;10.27;8.37;;;23.10;66.40;;;;;;5204629;28;20414;-49
2023/05/23 11:02:29;;;;;;;11.70;9.57;;;23.20;66.90;;;;;;5200599;28;20449;-48
2023/05/23 11:05:23;;;;;;;8.70;8.03;;;23.00;68.40;;;;;;5201833;28;20216;-48
2023/05/23 11:08:13;;;;;;;10.87;8.77;;;22.70;70.90;;;;;;5209562;28;20988;-47
2023/05/23 11:10:59;;;;;;;10.80;7.77;;;22.60;72.90;;;;;;5187131;28;20477;-51
2023/05/23 11:13:51;;;;;;;20.67;10.17;;;23.00;73.30;;;;;;5202380;28;20506;-50
2023/05/23 11:16:25;;;;;;;12.80;10.50;;;23.10;72.50;;;;;;5207047;28;20584;-49
2023/05/23 11:19:17;;;;;;;12.30;8.83;;;23.20;72.40;;;;;;5205767;28;20435;-48
2023/05/23 11:21:51;;;;;;;10.10;8.70;;;23.40;71.20;;;;;;5198421;28;20457;-49
2023/05/23 11:24:23;;;;;;;14.33;9.20;;;23.60;70.60;;;;;;5203583;28;20437;-48
2023/05/23 11:27:02;;;;;;;15.50;10.90;;;23.80;69.80;;;;;;5192421;28;20457;-48
2023/05/23 11:29:33;;;;;;;16.00;11.47;;;23.70;69.10;;;;;;5197591;28;20471;-49
2023/05/23 11:32:11;;;;;;;13.23;11.43;;;23.50;70.00;;;;;;5204417;28;20808;-48
2023/05/23 11:34:42;;;;;;;12.67;10.73;;;23.20;71.40;;;;;;5201532;28;20598;-49
2023/05/23 11:37:13;;;;;;;20.23;12.50;;;23.20;72.20;;;;;;5205836;28;20444;-48
2023/05/23 11:39:44;;;;;;;14.90;10.60;;;23.20;72.00;;;;;;5203915;28;20198;-48
2023/05/23 11:42:15;;;;;;;16.60;12.53;;;23.10;72.80;;;;;;5193466;28;20786;-49
2023/05/23 11:44:49;;;;;;;16.20;11.83;;;23.10;73.00;;;;;;5195025;28;20698;-48
2023/05/23 11:47:20;;;;;;;20.47;15.30;;;22.90;73.30;;;;;;5198956;28;20202;-50
2023/05/23 11:49:50;;;;;;;16.50;12.87;;;23.10;73.80;;;;;;5194881;28;20462;-48
2023/05/23 11:52:21;;;;;;;19.67;13.57;;;23.20;73.20;;;;;;5198470;28;20213;-49
2023/05/23 11:54:52;;;;;;;22.03;12.87;;;23.20;73.20;;;;;;5203151;28;20191;-50
2023/05/23 11:57:22;;;;;;;16.50;12.40;;;23.40;72.20;;;;;;5198576;28;20290;-48
2023/05/23 11:59:53;;;;;;;17.77;12.63;;;23.30;71.90;;;;;;5193912;28;20226;-50
2023/05/23 12:02:27;;;;;;;22.87;13.07;;;23.20;72.90;;;;;;5195256;28;20624;-50
2023/05/23 12:04:57;;;;;;;18.90;11.53;;;23.10;73.80;;;;;;5193346;28;20441;-48
2023/05/23 12:07:28;;;;;;;21.20;13.90;;;23.10;73.70;;;;;;5196603;28;20489;-48
2023/05/23 12:09:59;;;;;;;16.57;12.40;;;23.00;74.30;;;;;;5204288;28;20639;-49
2023/05/23 12:12:31;;;;;;;20.23;13.90;;;22.60;76.40;;;;;;5194043;28;20194;-49
2023/05/23 12:15:02;;;;;;;16.47;11.90;;;22.70;77.20;;;;;;5200842;28;20171;-50
2023/05/23 12:17:33;;;;;;;24.90;13.97;;;23.10;76.20;;;;;;5230735;22;20499;-48
2023/05/23 12:20:07;;;;;;;16.23;11.40;;;23.30;74.80;;;;;;5224151;28;20209;-49
2023/05/23 12:22:38;;;;;;;26.27;14.90;;;23.50;73.40;;;;;;5231270;28;20236;-49
2023/05/23 12:25:12;;;;;;;20.63;14.57;;;23.00;73.70;;;;;;5229770;28;20448;-48
2023/05/23 12:27:42;;;;;;;20.70;13.03;;;22.40;76.40;;;;;;5206573;28;20609;-47
2023/05/23 12:30:15;;;;;;;21.43;13.53;;;22.40;79.20;;;;;;5205131;28;20952;-47
2023/05/23 12:32:46;;;;;;;19.27;13.50;;;22.60;79.40;;;;;;5198943;28;20276;-52
2023/05/23 12:35:16;;;;;;;15.47;11.20;;;22.70;77.40;;;;;;5204076;28;21053;-49
2023/05/23 12:37:47;;;;;;;20.00;13.70;;;22.90;76.70;;;;;;5222197;28;20211;-49
2023/05/23 12:40:18;;;;;;;21.07;12.80;;;22.50;76.50;;;;;;5209312;28;20267;-50
2023/05/23 12:42:53;;;;;;;17.80;12.77;;;22.30;78.70;;;;;;5206927;28;20241;-50
2023/05/23 12:45:35;;;;;;;17.80;12.37;;;22.20;80.00;;;;;;5203563;28;20432;-53
2023/05/23 12:48:06;;;;;;;18.50;13.57;;;21.70;82.40;;;;;;5209850;28;21001;-48
2023/05/23 12:50:37;;;;;;;22.10;13.20;;;21.60;84.00;;;;;;5202131;28;20557;-50
2023/05/23 12:53:08;;;;;;;14.50;12.20;;;21.50;86.00;;;;;;5202891;28;20187;-48
2023/05/23 12:55:39;;;;;;;16.63;12.70;;;21.40;86.70;;;;;;5197015;28;20434;-48
2023/05/23 12:58:10;;;;;;;19.63;13.97;;;21.40;87.40;;;;;;5203646;28;20593;-49
2023/05/23 13:00:40;;;;;;;21.43;12.40;;;21.20;90.40;;;;;;5198950;28;20671;-52
2023/05/23 13:03:11;;;;;;;19.70;13.70;;;21.30;90.70;;;;;;5195339;28;20194;-51
2023/05/23 13:05:42;;;;;;;19.20;12.70;;;21.30;90.30;;;;;;5195882;28;20644;-50
2023/05/23 13:08:13;;;;;;;19.60;13.13;;;21.30;90.50;;;;;;5201293;28;20191;-50
2023/05/23 13:10:44;;;;;;;19.40;13.67;;;21.20;91.20;;;;;;5204174;28;20466;-48